sensor_id;sensor_type;location;lat;lon;timestamp;pressure;altitude;pressure_sealevel;temperature;humidity
12073;BME280;6098;49.004;8.372;2023-04-22T00:04:46;99672.32;;;13.30;89.40
12073;BME280;6098;49.004;8.372;2023-04-22T00:19:38;99670.62;;;13.15;90.47
12073;BME280;6098;49.004;8.372;2023-04-22T00:34:29;99671.15;;;13.06;90.89
12073;BME280;6098;49.004;8.372;2023-04-22T00:49:20;99653.34;;;12.92;91.63
12073;BME280;6098;49.004;8.372;2023-04-22T01:04:12;99674.73;;;12.83;91.27
12073;BME280;6098;49.004;8.372;2023-04-22T01:19:04;99672.86;;;12.77;92.39
12073;BME280;6098;49.004;8.372;2023-04-22T01:33:57;99679.41;;;12.64;93.23
12073;BME280;6098;49.004;8.372;2023-04-22T01:48:48;99690.19;;;12.54;93.39
12073;BME280;6098;49.004;8.372;2023-04-22T02:03:59;99681.79;;;12.38;93.81
12073;BME280;6098;49.004;8.372;2023-04-22T02:18:50;99682.66;;;12.23;94.07
12073;BME280;6098;49.004;8.372;2023-04-22T02:33:43;99692.63;;;12.12;95.09
12073;BME280;6098;49.004;8.372;2023-04-22T02:48:35;99703.15;;;11.97;96.09
12073;BME280;6098;49.004;8.372;2023-04-22T03:03:26;99710.80;;;11.79;95.35
12073;BME280;6098;49.004;8.372;2023-04-22T03:18:18;99695.91;;;11.60;95.16
12073;BME280;6098;49.004;8.372;2023-04-22T03:33:09;99705.14;;;11.36;95.10
12073;BME280;6098;49.004;8.372;2023-04-22T03:48:00;99709.41;;;11.23;96.03
12073;BME280;6098;49.004;8.372;2023-04-22T04:02:53;99696.58;;;11.06;95.30
12073;BME280;6098;49.004;8.372;2023-04-22T04:17:44;99683.02;;;10.95;96.30
12073;BME280;6098;49.004;8.372;2023-04-22T04:32:37;99695.25;;;10.89;95.57
12073;BME280;6098;49.004;8.372;2023-04-22T04:47:30;99691.58;;;10.83;95.29
12073;BME280;6098;49.004;8.372;2023-04-22T05:02:21;99708.41;;;10.73;94.95
12073;BME280;6098;49.004;8.372;2023-04-22T05:17:14;99715.05;;;10.73;95.12
12073;BME280;6098;49.004;8.372;2023-04-22T05:32:08;99710.44;;;10.77;94.05
12073;BME280;6098;49.004;8.372;2023-04-22T05:47:03;99741.89;;;10.93;93.58
12073;BME280;6098;49.004;8.372;2023-04-22T06:01:58;99749.03;;;11.34;91.89
12073;BME280;6098;49.004;8.372;2023-04-22T06:16:52;99740.91;;;11.79;92.05
12073;BME280;6098;49.004;8.372;2023-04-22T06:31:44;99736.88;;;12.27;89.41
12073;BME280;6098;49.004;8.372;2023-04-22T06:46:37;99735.63;;;12.80;86.67
12073;BME280;6098;49.004;8.372;2023-04-22T07:01:32;99739.42;;;13.21;84.02
12073;BME280;6098;49.004;8.372;2023-04-22T07:16:28;99737.94;;;13.60;80.56
12073;BME280;6098;49.004;8.372;2023-04-22T07:31:20;99747.45;;;14.06;74.50
12073;BME280;6098;49.004;8.372;2023-04-22T07:46:13;99739.94;;;14.47;69.92
12073;BME280;6098;49.004;8.372;2023-04-22T08:01:06;99726.64;;;14.93;67.62
12073;BME280;6098;49.004;8.372;2023-04-22T08:15:59;99716.30;;;15.33;62.89
12073;BME280;6098;49.004;8.372;2023-04-22T08:30:53;99703.78;;;15.79;63.34
12073;BME280;6098;49.004;8.372;2023-04-22T08:45:46;99716.15;;;16.23;62.83
12073;BME280;6098;49.004;8.372;2023-04-22T09:00:41;99706.11;;;16.75;63.23
12073;BME280;6098;49.004;8.372;2023-04-22T09:15:32;99675.28;;;17.10;61.25
12073;BME280;6098;49.004;8.372;2023-04-22T09:30:30;99661.46;;;17.50;61.42
12073;BME280;6098;49.004;8.372;2023-04-22T09:45:37;99651.67;;;17.94;57.46
12073;BME280;6098;49.004;8.372;2023-04-22T10:00:33;99660.84;;;18.40;55.45
12073;BME280;6098;49.004;8.372;2023-04-22T10:15:30;99664.34;;;19.10;54.15
12073;BME280;6098;49.004;8.372;2023-04-22T10:30:28;99654.30;;;19.63;53.23
12073;BME280;6098;49.004;8.372;2023-04-22T10:45:27;99641.89;;;20.66;46.59
12073;BME280;6098;49.004;8.372;2023-04-22T11:00:22;99623.76;;;21.11;43.31
12073;BME280;6098;49.004;8.372;2023-04-22T11:15:16;99623.11;;;21.22;41.27
12073;BME280;6098;49.004;8.372;2023-04-22T11:30:14;99624.12;;;21.63;40.18
12073;BME280;6098;49.004;8.372;2023-04-22T11:45:08;99645.34;;;21.38;40.89
12073;BME280;6098;49.004;8.372;2023-04-22T12:00:00;99652.47;;;21.53;39.61
12073;BME280;6098;49.004;8.372;2023-04-22T12:14:54;99641.63;;;21.77;38.66
12073;BME280;6098;49.004;8.372;2023-04-22T12:29:53;99646.62;;;22.09;36.54
12073;BME280;6098;49.004;8.372;2023-04-22T12:44:48;99647.62;;;22.52;37.71
12073;BME280;6098;49.004;8.372;2023-04-22T12:59:41;99647.08;;;22.49;36.32
12073;BME280;6098;49.004;8.372;2023-04-22T13:14:33;99633.89;;;22.55;36.87
12073;BME280;6098;49.004;8.372;2023-04-22T13:29:25;99622.05;;;22.52;36.39
12073;BME280;6098;49.004;8.372;2023-04-22T13:44:17;99618.22;;;22.41;35.17
12073;BME280;6098;49.004;8.372;2023-04-22T13:59:10;99589.53;;;22.48;34.62
12073;BME280;6098;49.004;8.372;2023-04-22T14:14:02;99583.74;;;22.52;34.81
12073;BME280;6098;49.004;8.372;2023-04-22T14:28:53;99582.26;;;22.40;35.12
12073;BME280;6098;49.004;8.372;2023-04-22T14:43:45;99585.17;;;21.84;35.86
12073;BME280;6098;49.004;8.372;2023-04-22T14:58:35;99587.63;;;21.55;36.84
12073;BME280;6098;49.004;8.372;2023-04-22T15:13:27;99588.23;;;21.39;36.98
12073;BME280;6098;49.004;8.372;2023-04-22T15:28:20;99599.00;;;21.21;38.40
12073;BME280;6098;49.004;8.372;2023-04-22T15:43:13;99606.28;;;21.19;38.37
12073;BME280;6098;49.004;8.372;2023-04-22T15:58:05;99609.86;;;21.01;39.00
12073;BME280;6098;49.004;8.372;2023-04-22T16:12:57;99613.61;;;20.94;39.72
12073;BME280;6098;49.004;8.372;2023-04-22T16:27:50;99613.09;;;20.85;39.97
12073;BME280;6098;49.004;8.372;2023-04-22T16:42:43;99609.64;;;20.84;40.76
12073;BME280;6098;49.004;8.372;2023-04-22T16:57:34;99614.88;;;20.66;41.78
12073;BME280;6098;49.004;8.372;2023-04-22T17:12:25;99636.40;;;20.42;42.39
12073;BME280;6098;49.004;8.372;2023-04-22T17:27:16;99658.46;;;20.22;43.57
12073;BME280;6098;49.004;8.372;2023-04-22T17:42:08;99665.52;;;19.98;44.88
12073;BME280;6098;49.004;8.372;2023-04-22T17:56:58;99688.77;;;19.38;47.01
12073;BME280;6098;49.004;8.372;2023-04-22T18:11:49;99696.84;;;18.91;49.28
12073;BME280;6098;49.004;8.372;2023-04-22T18:26:39;99700.53;;;18.41;51.76
12073;BME280;6098;49.004;8.372;2023-04-22T18:41:30;99699.84;;;18.11;54.80
12073;BME280;6098;49.004;8.372;2023-04-22T18:56:21;99706.27;;;17.82;56.30
12073;BME280;6098;49.004;8.372;2023-04-22T19:11:11;99730.38;;;17.71;57.83
12073;BME280;6098;49.004;8.372;2023-04-22T19:26:02;99736.55;;;17.55;58.58
12073;BME280;6098;49.004;8.372;2023-04-22T19:40:52;99748.94;;;17.27;60.15
12073;BME280;6098;49.004;8.372;2023-04-22T19:55:43;99757.87;;;16.92;61.17
12073;BME280;6098;49.004;8.372;2023-04-22T20:10:35;99742.71;;;16.50;62.98
12073;BME280;6098;49.004;8.372;2023-04-22T20:25:25;99743.88;;;16.28;64.20
12073;BME280;6098;49.004;8.372;2023-04-22T20:40:17;99737.30;;;16.20;65.98
12073;BME280;6098;49.004;8.372;2023-04-22T20:55:09;99740.13;;;16.00;67.90
12073;BME280;6098;49.004;8.372;2023-04-22T21:10:01;99729.59;;;15.79;69.31
12073;BME280;6098;49.004;8.372;2023-04-22T21:24:53;99747.61;;;15.64;70.53
12073;BME280;6098;49.004;8.372;2023-04-22T21:39:46;99752.84;;;15.53;72.13
12073;BME280;6098;49.004;8.372;2023-04-22T21:54:37;99739.97;;;15.46;72.59
12073;BME280;6098;49.004;8.372;2023-04-22T22:09:28;99743.92;;;15.40;73.26
12073;BME280;6098;49.004;8.372;2023-04-22T22:24:21;99756.89;;;15.32;73.99
12073;BME280;6098;49.004;8.372;2023-04-22T22:39:11;99753.66;;;15.27;74.58
12073;BME280;6098;49.004;8.372;2023-04-22T22:54:03;99745.55;;;15.22;75.25
12073;BME280;6098;49.004;8.372;2023-04-22T23:08:53;99763.84;;;15.15;76.36
12073;BME280;6098;49.004;8.372;2023-04-22T23:23:45;99768.27;;;14.96;79.95
12073;BME280;6098;49.004;8.372;2023-04-22T23:38:37;99770.92;;;14.76;85.50
12073;BME280;6098;49.004;8.372;2023-04-22T23:53:28;99771.16;;;14.52;89.21
